Latest Weather Observations for Stenhouse Bay

IDS60801

Issued at 10:01 am CDT Monday 27 February 2017 (issued every 30 minutes, with the page automatically refreshed every 10 minutes)

About weather observations | Map of weather stations | Latest weather observations for SA | Other Formats
Station Details ID: 022049 Name: STENHOUSE BAY Lat: -35.28 Lon: 136.94 Height: 42.0 m
Data from the previous 72 hours. | See also: Recent months at Stenhouse Bay
Date/Time
CDT
Temp
°C
App
Temp
°C
Dew
Point
°C
Rel
Hum
%
Delta-T
°C
Wind Press
QNH
hPa
Press
MSL
hPa
Rain since
9am
mm
Dir  Spd
km/h
Gust
km/h
Spd
kts
Gust
kts
27/10:00am 21.4 20.9 15.9 71 3.3 ESE 13 15 7 8 1018.8 1018.7 0.0
27/09:30am 21.1 20.7 16.3 74 2.9 ESE 13 17 7 9 1018.8 1018.7 0.0
27/09:00am 20.5 20.3 16.7 79 2.3 ESE 13 17 7 9 1018.7 1018.6 0.0
27/08:30am 19.5 18.6 16.9 85 1.6 ESE 17 22 9 12 1018.6 1018.5 0.0
27/08:00am 18.7 17.4 16.9 89 1.1 E 19 22 10 12 1018.3 1018.2 0.0
27/07:30am 17.9 17.1 16.2 90 1.0 ESE 15 19 8 10 1018.3 1018.2 0.0
27/07:00am 17.5 16.3 16.2 92 0.8 ESE 17 20 9 11 1018.2 1018.1 0.0
27/06:30am 17.4 15.8 16.1 92 0.8 ESE 19 22 10 12 1018.2 1018.1 0.0
27/06:00am 17.3 15.6 15.8 91 0.9 ESE 19 24 10 13 1018.0 1017.9 0.0
27/05:30am 17.1 15.3 15.4 90 1.0 ESE 19 22 10 12 1017.8 1017.7 0.0
27/05:00am 16.9 15.0 15.1 89 1.0 ESE 19 24 10 13 1018.0 1017.9 0.0
27/04:30am 17.0 14.8 15.0 88 1.2 ESE 20 26 11 14 1017.9 1017.8 0.0
27/04:00am 16.9 14.2 14.7 87 1.3 ESE 22 28 12 15 1018.0 1017.9 0.0
27/03:30am 16.8 14.1 14.6 87 1.3 ESE 22 28 12 15 1018.1 1018.0 0.0
27/03:00am 16.7 14.0 14.5 87 1.3 ESE 22 28 12 15 1018.3 1018.2 0.0
27/02:30am 16.6 13.8 14.2 86 1.4 ESE 22 28 12 15 1018.6 1018.5 0.0
27/02:00am 16.6 13.3 13.9 84 1.5 ESE 24 30 13 16 1018.7 1018.6 0.0
27/01:30am 16.7 13.0 14.0 84 1.5 ESE 26 32 14 17 1019.0 1018.9 0.0
27/01:00am 16.8 12.3 13.7 82 1.8 ESE 30 35 16 19 1018.9 1018.8 0.0
27/12:30am 16.9 13.2 13.8 82 1.8 ESE 26 32 14 17 1019.1 1019.0 0.0
27/12:00am 16.8 13.7 13.5 81 1.9 ESE 22 28 12 15 1019.3 1019.2 0.0
 
Date/Time
CDT
Temp
°C
App
Temp
°C
Dew
Point
°C
Rel
Hum
%
Delta-T
°C
Wind Press
QNH
hPa
Press
MSL
hPa
Rain since
9am
mm
Dir  Spd
km/h
Gust
km/h
Spd
kts
Gust
kts
26/11:30pm 16.9 13.5 13.6 81 1.9 SE 24 32 13 17 1019.5 1019.4 0.0
26/11:00pm 16.9 13.0 13.2 79 2.1 SE 26 32 14 17 1019.6 1019.5 0.0
26/10:30pm 17.1 14.1 13.6 80 2.0 SE 22 28 12 15 1019.7 1019.6 0.0
26/10:00pm 17.4 13.8 13.1 76 2.4 SE 24 32 13 17 1019.6 1019.5 0.0
26/09:30pm 17.9 16.1 14.4 80 2.0 SSE 17 19 9 10 1019.4 1019.3 0.0
26/09:00pm 17.7 16.2 14.2 80 2.0 S 15 17 8 9 1019.0 1018.9 0.0
26/08:30pm 17.8 17.5 14.3 80 2.0 S 9 11 5 6 1018.9 1018.8 0.0
26/08:00pm 18.3 17.5 14.0 76 2.5 S 11 13 6 7 1018.6 1018.5 0.0
26/07:30pm 19.2 18.3 13.8 71 3.1 S 11 13 6 7 1018.5 1018.4 0.0
26/07:00pm 19.8 18.9 13.7 68 3.5 S 11 13 6 7 1018.4 1018.3 0.0
26/06:30pm 20.6 19.3 12.6 60 4.5 SSE 11 13 6 7 1018.4 1018.3 0.0
26/06:00pm 21.1 19.8 12.5 58 4.9 SE 11 15 6 8 1018.3 1018.2 0.0
26/05:30pm 21.4 20.0 12.3 56 5.1 E 11 15 6 8 1018.3 1018.2 0.0
26/05:00pm 21.5 19.6 12.9 58 4.9 E 15 19 8 10 1018.2 1018.1 0.0
26/04:30pm 21.5 19.6 12.9 58 4.9 E 15 20 8 11 1018.3 1018.2 0.0
26/04:00pm 21.6 19.9 12.5 56 5.2 E 13 19 7 10 1018.4 1018.3 0.0
26/03:30pm 21.8 20.1 12.6 56 5.2 E 13 17 7 9 1018.6 1018.5 0.0
26/03:00pm 21.8 19.9 12.9 57 5.1 E 15 20 8 11 1019.0 1018.9 0.0
26/02:30pm 21.1 19.0 12.3 57 4.9 ENE 15 19 8 10 1019.2 1019.1 0.0
26/02:00pm 21.1 19.1 11.4 54 5.4 ENE 13 19 7 10 1019.3 1019.2 0.0
26/01:30pm 21.4 18.9 12.3 56 5.1 E 17 20 9 11 1019.4 1019.3 0.0
26/01:00pm 20.6 17.8 12.6 60 4.5 E 19 24 10 13 1019.7 1019.6 0.0
26/12:30pm 20.7 17.6 12.1 58 4.8 E 20 26 11 14 1020.2 1020.1 0.0
26/12:00pm 20.8 17.3 12.2 58 4.8 E 22 28 12 15 1020.4 1020.3 0.0
26/11:30am 20.1 16.5 11.8 59 4.6 E 22 28 12 15 1020.6 1020.5 0.0
26/11:00am 20.0 16.4 12.0 60 4.5 E 22 28 12 15 1020.8 1020.7 0.0
26/10:30am 19.6 16.1 12.1 62 4.2 E 22 30 12 16 1020.9 1020.8 0.0
26/10:00am 19.5 15.6 12.0 62 4.2 ESE 24 30 13 16 1021.0 1020.9 0.0
26/09:30am 19.1 15.7 12.4 65 3.7 ESE 22 30 12 16 1021.2 1021.1 0.0
26/09:00am 18.2 14.8 12.4 69 3.2 ESE 22 32 12 17 1021.0 1020.9 0.0
26/08:30am 17.4 13.9 12.3 72 2.8 ESE 22 33 12 18 1021.0 1020.9 0.0
26/08:00am 16.6 12.3 12.2 75 2.4 ESE 26 32 14 17 1020.7 1020.6 0.0
26/07:30am 15.9 11.6 11.9 77 2.2 ESE 26 32 14 17 1020.7 1020.6 0.0
26/07:00am 15.9 11.7 12.3 79 2.0 ESE 26 32 14 17 1020.5 1020.4 0.0
26/06:30am 15.8 11.9 12.2 79 2.0 ESE 24 32 13 17 1020.5 1020.4 0.0
26/06:00am 15.8 11.5 12.0 78 2.1 ESE 26 33 14 18 1020.3 1020.2 0.0
26/05:30am 15.7 11.0 11.9 78 2.1 ESE 28 35 15 19 1020.1 1020.0 0.0
26/05:00am 15.8 11.5 12.2 79 2.0 ESE 26 33 14 18 1020.0 1019.9 0.0
26/04:30am 15.6 10.8 11.6 77 2.2 ESE 28 35 15 19 1020.1 1020.0 0.0
26/04:00am 15.6 11.1 11.4 76 2.3 ESE 26 35 14 19 1020.4 1020.3 0.0
26/03:30am 15.6 11.0 11.2 75 2.4 ESE 26 33 14 18 1020.7 1020.6 0.0
26/03:00am 15.5 10.0 10.7 73 2.5 ESE 30 35 16 19 1021.1 1021.0 0.0
26/02:30am 15.6 10.7 11.4 76 2.3 ESE 28 35 15 19 1021.3 1021.2 0.0
26/02:00am 15.5 9.7 10.7 73 2.5 SE 32 39 17 21 1021.4 1021.3 0.0
26/01:30am 15.6 10.2 11.0 74 2.4 SE 30 39 16 21 1021.8 1021.7 0.0
26/01:00am 15.6 9.7 10.6 72 2.6 ESE 32 41 17 22 1022.0 1021.9 0.0
26/12:30am 15.6 9.5 10.6 72 2.6 SE 33 43 18 23 1022.1 1022.0 0.0
26/12:00am 15.6 9.7 10.4 71 2.7 SE 32 39 17 21 1022.4 1022.3 0.0
 
Date/Time
CDT
Temp
°C
App
Temp
°C
Dew
Point
°C
Rel
Hum
%
Delta-T
°C
Wind Press
QNH
hPa
Press
MSL
hPa
Rain since
9am
mm
Dir  Spd
km/h
Gust
km/h
Spd
kts
Gust
kts
25/11:30pm 15.6 9.5 10.4 71 2.7 SE 33 41 18 22 1022.6 1022.5 0.0
25/11:00pm 15.7 9.7 10.0 69 3.0 SE 32 41 17 22 1022.9 1022.8 0.0
25/10:30pm 15.8 10.1 9.9 68 3.1 SE 30 39 16 21 1023.0 1022.9 0.0
25/10:00pm 16.1 10.8 9.8 66 3.3 SE 28 37 15 20 1023.0 1022.9 0.0
25/09:30pm 16.4 11.1 9.8 65 3.4 SE 28 35 15 19 1023.1 1023.0 0.0
25/09:00pm 16.8 11.3 10.4 66 3.4 SE 30 41 16 22 1023.0 1022.9 0.0
25/08:30pm 17.3 12.9 10.4 64 3.7 SE 24 32 13 17 1022.7 1022.6 0.0
25/08:00pm 17.8 13.0 10.4 62 4.0 SE 26 35 14 19 1022.6 1022.5 0.0
25/07:30pm 18.2 12.9 9.8 58 4.4 SE 28 35 15 19 1022.7 1022.6 0.0
25/07:00pm 19.0 14.1 9.8 55 4.9 ESE 26 33 14 18 1022.7 1022.6 0.0
25/06:30pm 19.7 14.5 10.4 55 5.0 ESE 28 33 15 18 1022.6 1022.5 0.0
25/06:00pm 20.7 15.6 10.5 52 5.5 ESE 28 35 15 19 1022.7 1022.6 0.0
25/05:30pm 21.3 16.6 10.5 50 5.9 ESE 26 33 14 18 1022.8 1022.7 0.0
25/05:00pm 21.9 17.9 11.9 53 5.6 E 24 30 13 16 1023.0 1022.9 0.0
25/04:30pm 21.4 18.4 12.5 57 5.0 E 20 28 11 15 1023.2 1023.1 0.0
25/04:00pm 21.0 17.5 12.2 57 4.9 E 22 30 12 16 1023.5 1023.4 0.0
25/03:30pm 21.4 17.8 12.0 55 5.3 E 22 30 12 16 1023.7 1023.6 0.0
25/03:00pm 21.9 18.3 11.9 53 5.6 E 22 28 12 15 1024.0 1023.9 0.0
25/02:30pm 22.6 19.6 12.0 51 6.0 ESE 19 24 10 13 1024.5 1024.4 0.0
25/02:00pm 22.2 19.7 12.2 53 5.7 ESE 17 20 9 11 1024.9 1024.8 0.0
25/01:30pm 21.8 18.8 11.8 53 5.6 ESE 19 24 10 13 1025.2 1025.1 0.0
25/01:00pm 22.1 19.4 11.8 52 5.8 ESE 17 22 9 12 1025.4 1025.3 0.0
25/12:30pm 21.5 18.5 11.8 54 5.4 SE 19 24 10 13 1025.6 1025.5 0.0
25/12:00pm 20.9 17.9 11.8 56 5.1 ESE 19 24 10 13 1025.9 1025.8 0.0
25/11:30am 20.3 17.5 11.2 56 5.0 SE 17 24 9 13 1026.2 1026.1 0.0
25/11:00am 19.2 15.6 10.7 58 4.6 SE 20 26 11 14 1026.3 1026.2 0.0
25/10:30am 19.7 16.3 11.2 58 4.6 SE 20 28 11 15 1026.3 1026.2 0.0
25/10:00am 18.9 15.6 11.7 63 4.0 SE 20 28 11 15 1026.4 1026.3 0.0
25/09:30am 18.1 14.2 10.7 62 4.0 SE 22 30 12 16 1026.3 1026.2 0.0
25/09:00am 17.8 14.7 12.3 70 3.0 SE 20 30 11 16 1026.2 1026.1 0.0
25/08:30am 17.2 13.7 12.1 72 2.8 SE 22 32 12 17 1026.0 1025.9 0.0
25/08:00am 16.9 13.3 12.0 73 2.7 SE 22 30 12 16 1025.7 1025.6 0.0
25/07:30am 16.5 12.4 11.4 72 2.7 SE 24 32 13 17 1025.7 1025.6 0.0
25/07:00am 16.5 11.9 11.0 70 3.0 SE 26 33 14 18 1025.5 1025.4 0.0
25/06:30am 16.4 11.0 10.9 70 2.9 SE 30 39 16 21 1025.5 1025.4 0.0
25/06:00am 16.3 11.3 10.8 70 2.9 SE 28 37 15 20 1025.3 1025.2 0.0
25/05:30am 16.2 11.1 10.5 69 3.0 SE 28 37 15 20 1025.3 1025.2 0.0
25/05:00am 16.3 11.1 10.4 68 3.1 SE 28 37 15 20 1025.3 1025.2 0.0
25/04:30am 16.2 10.9 9.8 66 3.3 SE 28 37 15 20 1025.2 1025.1 0.0
25/04:00am 16.5 11.3 10.4 67 3.2 SE 28 37 15 20 1024.9 1024.8 0.0
25/03:30am 16.8 12.4 10.4 66 3.4 SE 24 35 13 19 1025.0 1024.9 0.0
25/03:00am 16.8 12.0 10.4 66 3.4 SE 26 33 14 18 1025.2 1025.1 0.0
25/02:30am 16.8 12.7 10.0 64 3.6 SE 22 32 12 17 1025.5 1025.4 0.0
25/02:00am 16.8 11.0 9.5 62 3.8 SE 30 37 16 20 1025.8 1025.7 0.0
25/01:30am 16.8 11.8 9.5 62 3.8 SE 26 37 14 20 1026.0 1025.9 0.0
25/01:00am 17.0 12.3 9.4 61 4.0 SSE 24 32 13 17 1026.4 1026.3 0.0
25/12:30am 17.0 12.0 9.7 62 3.8 SE 26 37 14 20 1026.6 1026.5 0.0
25/12:00am 17.1 12.8 9.3 60 4.0 SE 22 33 12 18 1026.7 1026.6 0.0
 
Date/Time
CDT
Temp
°C
App
Temp
°C
Dew
Point
°C
Rel
Hum
%
Delta-T
°C
Wind Press
QNH
hPa
Press
MSL
hPa
Rain since
9am
mm
Dir  Spd
km/h
Gust
km/h
Spd
kts
Gust
kts
24/11:30pm 17.0 12.7 9.2 60 4.0 SE 22 35 12 19 1026.8 1026.7 0.0
24/11:00pm 17.0 11.8 8.9 59 4.2 SSE 26 32 14 17 1027.2 1027.1 0.0
24/10:30pm 17.2 11.7 9.1 59 4.2 SSE 28 35 15 19 1027.2 1027.1 0.0
24/10:00pm 17.3 13.0 9.5 60 4.1 SSE 22 32 12 17 1027.2 1027.1 0.0
24/09:30pm 17.4 12.3 9.3 59 4.2 SSE 26 37 14 20 1027.1 1027.0 0.0
24/09:00pm 17.6 11.7 9.2 58 4.4 SSE 30 35 16 19 1026.8 1026.7 0.0
24/08:30pm 17.8 13.3 10.2 61 4.0 SSE 24 33 13 18 1026.8 1026.7 0.0
24/08:00pm 18.1 13.8 9.5 57 4.5 SSE 22 32 12 17 1026.7 1026.6 0.0
24/07:30pm 18.3 12.9 9.6 57 4.6 SSE 28 33 15 18 1026.5 1026.4 0.0
24/07:00pm 18.4 12.9 9.2 55 4.8 SSE 28 37 15 20 1026.3 1026.2 0.0
24/06:30pm 18.4 13.6 10.3 59 4.3 SSE 26 35 14 19 1026.3 1026.2 0.0
24/06:00pm 18.9 13.3 10.2 57 4.6 SSE 30 37 16 20 1026.2 1026.1 0.0
24/05:30pm 19.3 14.2 10.6 57 4.7 SSE 28 37 15 20 1026.1 1026.0 0.0
24/05:00pm 19.3 13.5 10.8 58 4.6 SSE 32 41 17 22 1025.9 1025.8 0.0
24/04:30pm 19.6 14.3 11.4 59 4.5 S 30 39 16 21 1026.0 1025.9 0.0
24/04:00pm 20.5 16.1 10.3 52 5.5 S 24 30 13 16 1026.1 1026.0 0.0
24/03:30pm 21.0 16.2 10.2 50 5.8 S 26 30 14 16 1026.3 1026.2 0.0
24/03:00pm 21.4 17.7 10.3 49 6.0 S 20 28 11 15 1026.5 1026.4 0.0
24/02:30pm 21.2 17.4 9.8 48 6.1 S 20 26 11 14 1026.7 1026.6 0.0
24/02:00pm 20.5 16.9 9.7 50 5.8 S 19 28 10 15 1026.9 1026.8 0.0
24/01:30pm 20.6 18.6 10.1 51 5.6 S 11 15 6 8 1027.2 1027.1 0.0
24/01:00pm 19.7 17.1 9.3 51 5.5 SSE 13 15 7 8 1027.3 1027.2 0.0
24/12:30pm 19.2 16.8 8.8 51 5.4 SSE 11 15 6 8 1027.5 1027.4 0.0
24/12:00pm 19.3 16.4 9.5 53 5.2 SSE 15 20 8 11 1027.7 1027.6 0.0
24/11:30am 19.0 15.7 9.5 54 5.0 S 17 22 9 12 1027.8 1027.7 0.0
24/11:00am 18.9 15.9 9.4 54 5.0 SSE 15 22 8 12 1027.9 1027.8 0.0
24/10:30am 18.1 14.6 8.9 55 4.8 SSE 17 20 9 11 1027.8 1027.7 0.0

Other Formats:

Comma delimited format used in spreadsheet applications
http://www.bom.gov.au/fwo/IDS60801/IDS60801.95806.axf

JavaScript Object Notation format (JSON) in row-major order
http://www.bom.gov.au/fwo/IDS60801/IDS60801.95806.json